createdAt,value
2023-02-12T00:01:20.361Z,4.44
2023-02-12T00:03:47.508Z,4.55
2023-02-12T00:06:16.001Z,4.53
2023-02-12T00:08:46.497Z,4.52
2023-02-12T00:11:19.463Z,4.45
2023-02-12T00:13:50.978Z,4.41
2023-02-12T00:16:21.799Z,4.37
2023-02-12T00:18:48.855Z,4.33
2023-02-12T00:21:18.496Z,4.35
2023-02-12T00:23:45.287Z,4.34
2023-02-12T00:26:14.804Z,4.33
2023-02-12T00:28:41.752Z,4.42
2023-02-12T00:31:10.890Z,4.46
2023-02-12T00:33:38.204Z,4.43
2023-02-12T00:38:36.179Z,4.47
2023-02-12T00:41:03.089Z,4.45
2023-02-12T00:43:30.060Z,4.45
2023-02-12T00:45:57.309Z,4.45
2023-02-12T00:48:24.545Z,4.42
2023-02-12T00:50:51.358Z,4.45
2023-02-12T00:53:18.385Z,4.48
2023-02-12T00:55:48.381Z,4.52
2023-02-12T00:58:18.863Z,4.55
2023-02-12T01:00:48.470Z,4.57
2023-02-12T01:03:15.710Z,4.54
2023-02-12T01:05:42.908Z,4.53
2023-02-12T01:08:13.027Z,4.52
2023-02-12T01:10:44.013Z,4.53
2023-02-12T01:13:15.314Z,4.56
2023-02-12T01:15:42.739Z,4.51
2023-02-12T01:18:11.044Z,4.53
2023-02-12T01:20:40.254Z,4.57
2023-02-12T01:23:09.681Z,4.59
2023-02-12T01:25:38.899Z,4.56
2023-02-12T01:28:10.355Z,4.53
2023-02-12T01:30:37.269Z,4.47
2023-02-12T01:33:09.918Z,4.47
2023-02-12T01:35:40.692Z,4.46
2023-02-12T01:40:34.269Z,4.45
2023-02-12T01:43:03.123Z,4.49
2023-02-12T01:45:46.588Z,4.49
2023-02-12T01:48:16.602Z,4.49
2023-02-12T01:50:45.991Z,4.42
2023-02-12T01:53:20.057Z,4.44
2023-02-12T01:55:55.889Z,4.43
2023-02-12T01:58:25.339Z,4.42
2023-02-12T02:00:52.609Z,4.43
2023-02-12T02:03:19.299Z,4.47
2023-02-12T02:05:49.278Z,4.50
2023-02-12T02:08:15.889Z,4.50
2023-02-12T02:10:42.985Z,4.47
2023-02-12T02:13:28.278Z,4.44
2023-02-12T02:16:00.344Z,4.45
2023-02-12T02:18:31.217Z,4.43
2023-02-12T02:21:12.393Z,4.40
2023-02-12T02:23:38.935Z,4.41
2023-02-12T02:26:42.405Z,4.39
2023-02-12T02:29:27.686Z,4.40
2023-02-12T02:32:06.093Z,4.47
2023-02-12T02:34:47.302Z,4.52
2023-02-12T02:37:54.793Z,4.51
2023-02-12T02:40:26.046Z,4.54
2023-02-12T02:43:03.274Z,4.54
2023-02-12T02:45:51.663Z,4.47
2023-02-12T02:48:32.272Z,4.51
2023-02-12T02:53:45.044Z,4.51
2023-02-12T02:56:17.614Z,4.57
2023-02-12T02:58:59.673Z,4.57
2023-02-12T03:01:41.123Z,4.54
2023-02-12T03:04:38.904Z,4.58
2023-02-12T03:07:17.250Z,4.58
2023-02-12T03:09:49.262Z,4.51
2023-02-12T03:12:23.430Z,4.45
2023-02-12T03:15:04.165Z,4.42
2023-02-12T03:17:35.278Z,4.44
2023-02-12T03:20:24.649Z,4.48
2023-02-12T03:22:56.511Z,4.51
2023-02-12T03:25:34.241Z,4.50
2023-02-12T03:28:09.782Z,4.50
2023-02-12T03:30:44.595Z,4.53
2023-02-12T03:33:36.961Z,4.51
2023-02-12T03:36:23.598Z,4.50
2023-02-12T03:38:55.375Z,4.55
2023-02-12T03:41:35.829Z,4.41
2023-02-12T03:44:39.595Z,4.51
2023-02-12T03:47:18.596Z,4.59
2023-02-12T03:49:54.220Z,4.61
2023-02-12T03:52:21.158Z,4.61
2023-02-12T03:54:47.964Z,4.63
2023-02-12T03:57:20.131Z,4.58
2023-02-12T03:59:50.170Z,4.62
2023-02-12T04:02:19.468Z,4.61
2023-02-12T04:04:47.569Z,4.56
2023-02-12T04:07:14.951Z,4.59
2023-02-12T04:09:41.683Z,4.59
2023-02-12T04:12:30.999Z,4.57
2023-02-12T04:17:40.601Z,4.58
2023-02-12T04:20:13.379Z,4.58
2023-02-12T04:23:15.660Z,4.54
2023-02-12T04:25:48.191Z,4.49
2023-02-12T04:31:20.584Z,4.44
2023-02-12T04:36:44.568Z,4.42
2023-02-12T04:39:18.746Z,4.43
2023-02-12T04:41:45.297Z,4.45
2023-02-12T04:44:19.366Z,4.43
2023-02-12T04:46:45.892Z,4.40
2023-02-12T04:49:20.581Z,4.36
2023-02-12T04:51:49.899Z,4.41
2023-02-12T04:54:19.408Z,4.42
2023-02-12T04:56:46.690Z,4.40
2023-02-12T05:01:41.183Z,4.41
2023-02-12T05:04:09.972Z,4.43
2023-02-12T05:06:37.877Z,4.44
2023-02-12T05:09:06.234Z,4.42
2023-02-12T05:11:32.949Z,4.40
2023-02-12T05:14:00.058Z,4.44
2023-02-12T05:16:26.960Z,4.50
2023-02-12T05:18:53.443Z,4.52
2023-02-12T05:21:20.007Z,4.45
2023-02-12T05:23:46.482Z,4.53
2023-02-12T05:26:16.436Z,4.53
2023-02-12T05:28:43.108Z,4.44
2023-02-12T05:31:13.612Z,4.33
2023-02-12T05:33:43.895Z,4.28
2023-02-12T05:36:13.759Z,4.29
2023-02-12T05:38:40.375Z,4.26
2023-02-12T05:41:10.086Z,4.19
2023-02-12T05:43:37.129Z,4.21
2023-02-12T05:46:06.521Z,4.14
2023-02-12T05:48:34.200Z,4.07
2023-02-12T05:51:13.764Z,4.08
2023-02-12T05:53:41.312Z,4.10
2023-02-12T05:56:17.565Z,4.07
2023-02-12T05:58:47.263Z,3.94
2023-02-12T06:01:20.280Z,4.02
2023-02-12T06:03:47.642Z,3.98
2023-02-12T06:06:15.318Z,4.01
2023-02-12T06:08:48.535Z,3.95
2023-02-12T06:11:16.768Z,3.90
2023-02-12T06:13:46.955Z,3.93
2023-02-12T06:16:20.002Z,3.93
2023-02-12T06:18:47.015Z,3.96
2023-02-12T06:21:14.153Z,3.98
2023-02-12T06:23:43.556Z,3.96
2023-02-12T06:26:10.558Z,3.99
2023-02-12T06:28:37.490Z,3.95
2023-02-12T06:31:04.990Z,4.00
2023-02-12T06:33:33.103Z,3.99
2023-02-12T06:36:03.968Z,3.93
2023-02-12T06:38:32.693Z,3.96
2023-02-12T06:41:02.470Z,3.97
2023-02-12T06:43:29.788Z,3.93
2023-02-12T06:45:57.053Z,3.96
2023-02-12T06:48:26.214Z,4.07
2023-02-12T06:50:53.169Z,4.00
2023-02-12T06:53:19.966Z,4.03
2023-02-12T06:55:46.788Z,4.08
2023-02-12T06:58:13.663Z,4.05
2023-02-12T07:00:41.921Z,4.07
2023-02-12T07:05:38.004Z,4.00
2023-02-12T07:08:05.198Z,4.03
2023-02-12T07:10:32.084Z,3.99
2023-02-12T07:12:58.875Z,4.01
2023-02-12T07:15:28.187Z,4.00
2023-02-12T07:18:35.539Z,4.02
2023-02-12T07:21:05.891Z,3.96
2023-02-12T07:23:33.714Z,4.00
2023-02-12T07:26:09.827Z,4.06
2023-02-12T07:28:52.582Z,4.04
2023-02-12T07:31:22.261Z,4.08
2023-02-12T07:36:24.086Z,4.11
2023-02-12T07:41:23.099Z,4.25
2023-02-12T07:46:42.366Z,4.34
2023-02-12T07:49:14.155Z,4.37
2023-02-12T07:51:41.511Z,4.41
2023-02-12T07:54:14.907Z,4.36
2023-02-12T07:56:44.660Z,4.41
2023-02-12T07:59:13.690Z,4.47
2023-02-12T08:01:53.886Z,4.54
2023-02-12T08:04:24.151Z,4.60
2023-02-12T08:07:10.220Z,4.60
2023-02-12T08:09:40.234Z,4.65
2023-02-12T08:14:34.930Z,4.72
2023-02-12T08:17:04.474Z,4.73
2023-02-12T08:19:31.453Z,4.85
2023-02-12T08:21:58.816Z,4.92
2023-02-12T08:24:26.221Z,4.99
2023-02-12T08:26:54.192Z,5.07
2023-02-12T08:29:31.369Z,5.20
2023-02-12T08:32:02.443Z,5.31
2023-02-12T08:34:37.051Z,5.41
2023-02-12T08:37:08.506Z,5.51
2023-02-12T08:39:35.499Z,5.61
2023-02-12T08:42:02.540Z,5.63
2023-02-12T08:44:35.768Z,5.63
2023-02-12T08:47:13.798Z,5.59
2023-02-12T08:50:07.665Z,5.57
2023-02-12T08:52:45.866Z,5.56
2023-02-12T08:55:19.877Z,5.56
2023-02-12T08:57:46.909Z,5.59
2023-02-12T09:00:14.442Z,5.57
2023-02-12T09:02:44.785Z,5.67
2023-02-12T09:05:16.925Z,5.83
2023-02-12T09:07:44.418Z,5.97
2023-02-12T09:10:24.517Z,6.08
2023-02-12T09:12:56.995Z,6.27
2023-02-12T09:15:23.942Z,6.31
2023-02-12T09:17:54.673Z,6.34
2023-02-12T09:20:22.030Z,6.40
2023-02-12T09:22:51.230Z,6.57
2023-02-12T09:25:23.116Z,6.74
2023-02-12T09:27:52.913Z,7.03
2023-02-12T09:30:25.357Z,7.13
2023-02-12T09:32:56.321Z,7.28
2023-02-12T09:35:31.625Z,7.35
2023-02-12T09:37:58.794Z,7.23
2023-02-12T09:40:42.190Z,6.86
2023-02-12T09:43:30.079Z,6.99
2023-02-12T09:46:47.387Z,6.98
2023-02-12T09:49:16.468Z,7.23
2023-02-12T09:51:54.079Z,7.44
2023-02-12T09:54:26.366Z,7.64
2023-02-12T09:57:03.714Z,7.93
2023-02-12T09:59:45.410Z,8.20
2023-02-12T10:02:19.648Z,8.05
2023-02-12T10:05:04.616Z,8.09
2023-02-12T10:07:40.156Z,8.11
2023-02-12T10:10:28.493Z,8.12
2023-02-12T10:13:04.413Z,8.02
2023-02-12T10:15:49.439Z,8.04
2023-02-12T10:18:26.249Z,8.15
2023-02-12T10:21:22.748Z,8.21
2023-02-12T10:24:35.203Z,8.26
2023-02-12T10:27:24.095Z,8.29
2023-02-12T10:29:52.217Z,8.09
2023-02-12T10:32:31.161Z,7.92
2023-02-12T10:34:59.850Z,7.84
2023-02-12T10:37:40.634Z,7.76
2023-02-12T10:40:26.492Z,7.79
2023-02-12T10:42:56.417Z,7.94
2023-02-12T10:45:35.712Z,8.09
2023-02-12T10:48:21.678Z,7.98
2023-02-12T10:53:42.121Z,8.18
2023-02-12T10:56:24.913Z,8.34
2023-02-12T10:58:55.973Z,8.47
2023-02-12T11:01:26.167Z,8.51
2023-02-12T11:03:55.332Z,8.56
2023-02-12T11:06:25.974Z,8.60
2023-02-12T11:08:59.725Z,8.62
2023-02-12T11:11:34.120Z,8.52
2023-02-12T11:14:06.298Z,8.51
2023-02-12T11:17:03.145Z,8.33
2023-02-12T11:19:32.589Z,8.38
2023-02-12T11:22:21.002Z,8.50
2023-02-12T11:25:04.995Z,8.45
2023-02-12T11:27:41.960Z,8.36
2023-02-12T11:30:23.007Z,8.16
2023-02-12T11:32:53.386Z,8.19
2023-02-12T11:35:29.710Z,8.30
2023-02-12T11:37:58.825Z,8.30
2023-02-12T11:40:31.439Z,8.32
2023-02-12T11:43:02.015Z,8.33
2023-02-12T11:45:42.030Z,8.25
2023-02-12T11:48:43.943Z,8.21
2023-02-12T11:53:51.752Z,8.01
2023-02-12T11:56:19.302Z,7.99
2023-02-12T11:58:47.941Z,7.98
2023-02-12T12:01:43.729Z,8.00
2023-02-12T12:04:17.986Z,8.04
2023-02-12T12:06:54.314Z,8.08
2023-02-12T12:09:39.857Z,8.25
2023-02-12T12:12:06.756Z,8.29
2023-02-12T12:15:08.893Z,8.43
2023-02-12T12:18:08.938Z,8.42
2023-02-12T12:21:15.505Z,8.34
2023-02-12T12:26:48.006Z,8.03
2023-02-12T12:29:28.834Z,7.94
2023-02-12T12:34:32.753Z,7.92
2023-02-12T12:37:12.445Z,7.88
2023-02-12T12:40:20.347Z,7.89
2023-02-12T12:42:56.454Z,7.89
2023-02-12T12:45:40.796Z,7.90
2023-02-12T12:48:35.841Z,7.86
2023-02-12T12:51:13.011Z,7.91
2023-02-12T12:56:38.906Z,7.93
2023-02-12T12:59:30.349Z,7.79
2023-02-12T13:02:32.143Z,7.85
2023-02-12T13:05:22.287Z,7.71
2023-02-12T13:08:22.730Z,7.83
2023-02-12T13:11:07.028Z,7.91
2023-02-12T13:13:45.981Z,7.90
2023-02-12T13:16:23.577Z,7.92
2023-02-12T13:19:01.653Z,7.95
2023-02-12T13:21:44.337Z,8.06
2023-02-12T13:24:39.032Z,8.13
2023-02-12T13:27:20.335Z,8.13
2023-02-12T13:29:59.241Z,8.19
2023-02-12T13:32:32.730Z,8.22
2023-02-12T13:35:01.362Z,8.24
2023-02-12T13:37:57.267Z,8.28
2023-02-12T13:46:04.477Z,8.29
2023-02-12T13:48:43.458Z,8.31
2023-02-12T13:51:51.192Z,8.33
2023-02-12T13:54:56.747Z,8.34
2023-02-12T14:00:51.935Z,8.30
2023-02-12T14:03:34.757Z,8.38
2023-02-12T14:06:29.334Z,8.47
2023-02-12T14:09:27.179Z,8.57
2023-02-12T14:12:00.126Z,8.63
2023-02-12T14:14:36.810Z,8.69
2023-02-12T14:17:38.527Z,8.67
2023-02-12T14:23:03.201Z,8.58
2023-02-12T14:25:33.982Z,8.53
2023-02-12T14:28:11.079Z,8.48
2023-02-12T14:30:59.086Z,8.40
2023-02-12T14:33:31.145Z,8.37
2023-02-12T14:36:40.325Z,8.35
2023-02-12T14:44:48.929Z,7.65
2023-02-12T14:47:45.044Z,7.91
2023-02-12T14:50:24.249Z,7.94
2023-02-12T14:55:50.170Z,7.53
2023-02-12T15:00:49.603Z,7.56
2023-02-12T15:06:12.288Z,7.56
2023-02-12T15:09:03.254Z,7.63
2023-02-12T15:11:33.096Z,7.67
2023-02-12T15:14:31.305Z,7.69
2023-02-12T15:17:24.919Z,7.69
2023-02-12T15:20:06.199Z,7.66
2023-02-12T15:22:51.113Z,7.55
2023-02-12T15:25:35.214Z,7.53
2023-02-12T15:30:49.061Z,7.48
2023-02-12T15:33:33.014Z,7.43
2023-02-12T15:36:11.272Z,7.37
2023-02-12T15:38:59.184Z,7.28
2023-02-12T15:41:30.166Z,7.27
2023-02-12T15:43:57.433Z,7.14
2023-02-12T15:46:28.028Z,7.07
2023-02-12T15:49:19.654Z,6.95
2023-02-12T15:51:49.079Z,6.88
2023-02-12T15:54:20.105Z,6.84
2023-02-12T15:56:50.220Z,6.83
2023-02-12T15:59:29.214Z,6.81
2023-02-12T16:02:02.666Z,6.63
2023-02-12T16:04:33.402Z,6.63
2023-02-12T16:07:01.663Z,6.55
2023-02-12T16:09:37.807Z,6.52
2023-02-12T16:12:17.338Z,6.38
2023-02-12T16:14:53.043Z,6.25
2023-02-12T16:17:33.677Z,6.17
2023-02-12T16:20:04.377Z,6.04
2023-02-12T16:22:49.769Z,5.98
2023-02-12T16:25:27.857Z,5.86
2023-02-12T16:30:39.502Z,5.68
2023-02-12T16:34:00.812Z,5.64
2023-02-12T16:36:32.047Z,5.46
2023-02-12T16:39:12.054Z,5.36
2023-02-12T16:41:55.236Z,5.26
2023-02-12T16:44:27.952Z,5.16
2023-02-12T16:47:31.308Z,5.11
2023-02-12T16:50:02.336Z,5.10
2023-02-12T16:52:43.364Z,5.09
2023-02-12T16:55:18.102Z,5.10
2023-02-12T16:57:45.722Z,4.94
2023-02-12T17:00:17.281Z,4.91
2023-02-12T17:02:44.260Z,4.88
2023-02-12T17:05:17.018Z,4.84
2023-02-12T17:07:46.173Z,4.75
2023-02-12T17:12:49.604Z,4.66
2023-02-12T17:15:27.208Z,4.61
2023-02-12T17:17:57.159Z,4.57
2023-02-12T17:20:28.364Z,4.58
2023-02-12T17:22:57.971Z,4.60
2023-02-12T17:25:25.529Z,4.71
2023-02-12T17:27:54.831Z,4.74
2023-02-12T17:30:22.117Z,4.80
2023-02-12T17:32:51.173Z,4.85
2023-02-12T17:37:52.023Z,4.88
2023-02-12T17:40:19.385Z,4.98
2023-02-12T17:42:49.101Z,4.99
2023-02-12T17:47:58.991Z,4.89
2023-02-12T17:50:31.667Z,4.92
2023-02-12T17:53:20.522Z,4.74
2023-02-12T17:55:52.163Z,4.66
2023-02-12T17:58:30.549Z,4.75
2023-02-12T18:00:58.216Z,4.77
2023-02-12T18:03:27.448Z,4.84
2023-02-12T18:05:54.774Z,4.88
2023-02-12T18:08:34.432Z,4.92
2023-02-12T18:11:10.171Z,4.92
2023-02-12T18:13:38.108Z,4.94
2023-02-12T18:16:58.694Z,4.95
2023-02-12T18:19:33.392Z,4.93
2023-02-12T18:22:10.222Z,4.97
2023-02-12T18:24:47.065Z,4.91
2023-02-12T18:27:34.040Z,4.90
2023-02-12T18:30:04.960Z,4.89
2023-02-12T18:32:32.201Z,4.88
2023-02-12T18:35:01.231Z,4.90
2023-02-12T18:37:29.078Z,4.88
2023-02-12T18:40:03.304Z,4.87
2023-02-12T18:42:35.261Z,4.88
2023-02-12T18:45:31.005Z,4.84
2023-02-12T18:48:09.377Z,4.83
2023-02-12T18:50:45.194Z,4.87
2023-02-12T18:53:25.089Z,4.85
2023-02-12T18:56:09.170Z,4.83
2023-02-12T18:58:43.632Z,4.81
2023-02-12T19:03:57.550Z,4.81
2023-02-12T19:06:40.724Z,4.78
2023-02-12T19:14:39.039Z,4.85
2023-02-12T19:17:08.970Z,4.87
2023-02-12T19:20:07.331Z,4.88
2023-02-12T19:22:39.145Z,4.87
2023-02-12T19:25:13.341Z,4.84
2023-02-12T19:27:42.812Z,4.89
2023-02-12T19:30:28.350Z,4.85
2023-02-12T19:32:57.686Z,4.86
2023-02-12T19:35:24.591Z,4.85
2023-02-12T19:37:54.032Z,4.86
2023-02-12T19:40:25.435Z,4.88
2023-02-12T19:42:59.484Z,4.88
2023-02-12T19:45:34.000Z,4.85
2023-02-12T19:50:48.156Z,4.88
2023-02-12T19:53:22.143Z,4.86
2023-02-12T19:55:51.760Z,4.88
2023-02-12T19:58:18.663Z,4.85
2023-02-12T20:00:46.468Z,4.91
2023-02-12T20:06:10.738Z,4.95
2023-02-12T20:08:46.256Z,4.90
2023-02-12T20:13:58.276Z,4.98
2023-02-12T20:16:31.359Z,4.99
2023-02-12T20:19:07.498Z,5.03
2023-02-12T20:21:37.383Z,5.00
2023-02-12T20:24:04.874Z,5.03
2023-02-12T20:26:33.754Z,5.01
2023-02-12T20:29:06.689Z,5.02
2023-02-12T20:31:43.286Z,5.00
2023-02-12T20:34:15.842Z,5.01
2023-02-12T20:41:51.468Z,5.05
2023-02-12T20:44:29.921Z,5.06
2023-02-12T20:49:43.541Z,5.02
2023-02-12T20:52:13.548Z,5.09
2023-02-12T20:54:42.882Z,5.04
2023-02-12T20:57:16.845Z,5.08
2023-02-12T20:59:43.855Z,5.04
2023-02-12T21:05:09.688Z,5.10
2023-02-12T21:07:36.550Z,5.06
2023-02-12T21:10:04.830Z,5.02
2023-02-12T21:12:31.900Z,5.04
2023-02-12T21:14:58.940Z,5.06
2023-02-12T21:17:26.055Z,5.04
2023-02-12T21:19:53.037Z,5.06
2023-02-12T21:22:21.488Z,5.02
2023-02-12T21:24:56.064Z,5.07
2023-02-12T21:27:23.102Z,5.02
2023-02-12T21:29:50.103Z,5.03
2023-02-12T21:32:20.390Z,4.99
2023-02-12T21:34:48.874Z,5.03
2023-02-12T21:42:37.283Z,4.99
2023-02-12T21:45:08.393Z,5.01
2023-02-12T21:47:38.263Z,5.05
2023-02-12T21:50:08.488Z,5.03
2023-02-12T21:52:44.590Z,5.01
2023-02-12T21:57:48.179Z,4.99
2023-02-12T22:00:20.275Z,5.00
2023-02-12T22:02:47.173Z,4.96
2023-02-12T22:05:14.187Z,5.01
2023-02-12T22:07:41.071Z,5.03
2023-02-12T22:10:09.551Z,4.92
2023-02-12T22:12:46.794Z,4.87
2023-02-12T22:15:13.885Z,4.86
2023-02-12T22:17:41.239Z,4.77
2023-02-12T22:20:11.140Z,4.82
2023-02-12T22:22:38.415Z,4.82
2023-02-12T22:25:05.689Z,4.78
2023-02-12T22:27:37.567Z,4.74
2023-02-12T22:30:13.559Z,4.76
2023-02-12T22:32:47.888Z,4.79
2023-02-12T22:35:15.148Z,4.85
2023-02-12T22:37:49.597Z,4.81
2023-02-12T22:40:16.494Z,4.74
2023-02-12T22:42:43.529Z,4.71
2023-02-12T22:45:10.567Z,4.72
2023-02-12T22:47:42.570Z,4.65
2023-02-12T22:50:12.587Z,4.57
2023-02-12T22:52:40.668Z,4.50
2023-02-12T22:55:07.662Z,4.45
2023-02-12T22:57:37.083Z,4.43
2023-02-12T23:00:08.447Z,4.29
2023-02-12T23:02:39.200Z,4.14
2023-02-12T23:05:06.010Z,3.98
2023-02-12T23:07:41.361Z,3.92
2023-02-12T23:10:08.990Z,3.70
2023-02-12T23:12:43.020Z,3.53
2023-02-12T23:15:10.507Z,3.38
2023-02-12T23:17:37.719Z,3.34
2023-02-12T23:20:14.579Z,3.28
2023-02-12T23:22:41.720Z,3.23
2023-02-12T23:25:08.630Z,3.18
2023-02-12T23:27:35.517Z,3.12
2023-02-12T23:30:02.440Z,3.07
2023-02-12T23:35:00.327Z,2.95
2023-02-12T23:37:27.422Z,2.86
2023-02-12T23:40:01.699Z,2.74
2023-02-12T23:42:28.821Z,2.65
2023-02-12T23:44:56.983Z,2.68
2023-02-12T23:47:27.195Z,2.62
2023-02-12T23:49:56.055Z,2.51
2023-02-12T23:52:23.161Z,2.40
2023-02-12T23:54:52.314Z,2.39
2023-02-12T23:57:19.460Z,2.33
2023-02-12T23:59:47.623Z,2.25
